sensor_id;sensor_type;location;lat;lon;timestamp;pressure;altitude;pressure_sealevel;temperature;humidity
20368;BME280;10343;52.402;9.796;2023-07-16T00:01:42;100314.41;;;30.06;42.78
20368;BME280;10343;52.402;9.796;2023-07-16T00:04:10;100294.63;;;30.77;41.46
20368;BME280;10343;52.402;9.796;2023-07-16T00:06:38;100301.28;;;31.22;40.54
20368;BME280;10343;52.402;9.796;2023-07-16T00:09:07;100314.69;;;30.61;41.63
20368;BME280;10343;52.402;9.796;2023-07-16T00:11:35;100317.31;;;30.21;42.39
20368;BME280;10343;52.402;9.796;2023-07-16T00:14:03;100319.69;;;30.24;42.20
20368;BME280;10343;52.402;9.796;2023-07-16T00:16:31;100320.41;;;30.10;42.78
20368;BME280;10343;52.402;9.796;2023-07-16T00:18:59;100309.09;;;30.29;42.74
20368;BME280;10343;52.402;9.796;2023-07-16T00:21:27;100294.91;;;28.92;45.56
20368;BME280;10343;52.402;9.796;2023-07-16T00:23:55;100266.38;;;29.29;44.59
20368;BME280;10343;52.402;9.796;2023-07-16T00:26:24;100264.03;;;29.43;44.23
20368;BME280;10343;52.402;9.796;2023-07-16T00:28:52;100273.47;;;29.06;45.72
20368;BME280;10343;52.402;9.796;2023-07-16T00:31:20;100273.81;;;29.03;45.15
20368;BME280;10343;52.402;9.796;2023-07-16T00:33:48;100269.53;;;29.92;43.22
20368;BME280;10343;52.402;9.796;2023-07-16T00:36:16;100260.22;;;29.19;44.50
20368;BME280;10343;52.402;9.796;2023-07-16T00:38:44;100247.63;;;29.26;44.30
20368;BME280;10343;52.402;9.796;2023-07-16T00:41:13;100234.16;;;29.74;43.01
20368;BME280;10343;52.402;9.796;2023-07-16T00:43:42;100228.25;;;28.95;44.78
20368;BME280;10343;52.402;9.796;2023-07-16T00:46:11;100270.59;;;29.24;44.58
20368;BME280;10343;52.402;9.796;2023-07-16T00:48:41;100316.41;;;29.04;45.44
20368;BME280;10343;52.402;9.796;2023-07-16T00:51:09;100317.41;;;28.86;45.45
20368;BME280;10343;52.402;9.796;2023-07-16T00:53:38;100321.41;;;28.66;45.99
20368;BME280;10343;52.402;9.796;2023-07-16T00:56:07;100314.44;;;28.45;47.14
20368;BME280;10343;52.402;9.796;2023-07-16T00:58:35;100299.56;;;28.66;46.59
20368;BME280;10343;52.402;9.796;2023-07-16T01:01:04;100300.19;;;29.45;44.41
20368;BME280;10343;52.402;9.796;2023-07-16T01:03:32;100309.44;;;29.60;43.84
20368;BME280;10343;52.402;9.796;2023-07-16T01:06:02;100342.94;;;29.87;43.10
20368;BME280;10343;52.402;9.796;2023-07-16T01:08:35;100344.06;;;29.52;43.69
20368;BME280;10343;52.402;9.796;2023-07-16T01:11:07;100344.25;;;29.58;43.71
20368;BME280;10343;52.402;9.796;2023-07-16T01:13:36;100320.50;;;29.34;44.22
20368;BME280;10343;52.402;9.796;2023-07-16T01:16:05;100320.34;;;29.52;43.35
20368;BME280;10343;52.402;9.796;2023-07-16T01:18:34;100333.69;;;29.80;43.11
20368;BME280;10343;52.402;9.796;2023-07-16T01:21:02;100309.63;;;29.59;43.38
20368;BME280;10343;52.402;9.796;2023-07-16T01:23:41;100303.69;;;29.21;44.22
20368;BME280;10343;52.402;9.796;2023-07-16T01:26:38;100328.44;;;29.19;44.47
20368;BME280;10343;52.402;9.796;2023-07-16T01:29:29;100344.13;;;30.09;42.42
20368;BME280;10343;52.402;9.796;2023-07-16T01:32:00;100353.84;;;30.37;41.78
20368;BME280;10343;52.402;9.796;2023-07-16T01:34:29;100350.13;;;30.05;42.37
20368;BME280;10343;52.402;9.796;2023-07-16T01:37:00;100350.59;;;30.41;41.80
20368;BME280;10343;52.402;9.796;2023-07-16T01:39:28;100349.41;;;30.27;41.73
20368;BME280;10343;52.402;9.796;2023-07-16T01:41:57;100345.81;;;29.69;43.10
20368;BME280;10343;52.402;9.796;2023-07-16T01:44:25;100329.94;;;29.73;42.82
20368;BME280;10343;52.402;9.796;2023-07-16T01:47:07;100334.22;;;29.92;42.90
20368;BME280;10343;52.402;9.796;2023-07-16T01:49:36;100338.44;;;29.53;43.50
20368;BME280;10343;52.402;9.796;2023-07-16T01:52:06;100320.66;;;29.41;44.21
20368;BME280;10343;52.402;9.796;2023-07-16T01:54:34;100320.34;;;29.52;43.59
20368;BME280;10343;52.402;9.796;2023-07-16T01:57:02;100323.09;;;29.69;43.22
20368;BME280;10343;52.402;9.796;2023-07-16T01:59:30;100329.06;;;29.72;43.20
20368;BME280;10343;52.402;9.796;2023-07-16T02:01:59;100330.59;;;29.67;43.17
20368;BME280;10343;52.402;9.796;2023-07-16T02:04:27;100321.88;;;29.38;43.31
20368;BME280;10343;52.402;9.796;2023-07-16T02:06:57;100312.31;;;29.34;43.64
20368;BME280;10343;52.402;9.796;2023-07-16T02:09:25;100309.31;;;29.95;42.27
20368;BME280;10343;52.402;9.796;2023-07-16T02:11:53;100314.84;;;29.27;43.72
20368;BME280;10343;52.402;9.796;2023-07-16T02:14:21;100314.91;;;29.60;43.09
20368;BME280;10343;52.402;9.796;2023-07-16T02:16:49;100319.56;;;28.48;45.73
20368;BME280;10343;52.402;9.796;2023-07-16T02:19:18;100333.47;;;29.48;43.28
20368;BME280;10343;52.402;9.796;2023-07-16T02:21:46;100337.16;;;28.88;44.56
20368;BME280;10343;52.402;9.796;2023-07-16T02:24:14;100343.22;;;28.66;45.38
20368;BME280;10343;52.402;9.796;2023-07-16T02:26:42;100333.91;;;29.19;44.50
20368;BME280;10343;52.402;9.796;2023-07-16T02:29:11;100348.84;;;28.64;45.65
20368;BME280;10343;52.402;9.796;2023-07-16T02:31:39;100355.94;;;28.39;46.64
20368;BME280;10343;52.402;9.796;2023-07-16T02:34:08;100347.66;;;28.67;45.83
20368;BME280;10343;52.402;9.796;2023-07-16T02:36:37;100346.13;;;29.07;45.06
20368;BME280;10343;52.402;9.796;2023-07-16T02:39:04;100345.19;;;28.11;46.98
20368;BME280;10343;52.402;9.796;2023-07-16T02:41:32;100352.19;;;27.95;48.10
20368;BME280;10343;52.402;9.796;2023-07-16T02:44:00;100352.94;;;28.42;46.68
20368;BME280;10343;52.402;9.796;2023-07-16T02:46:28;100341.47;;;28.12;47.27
20368;BME280;10343;52.402;9.796;2023-07-16T02:48:56;100348.25;;;28.60;46.02
20368;BME280;10343;52.402;9.796;2023-07-16T02:51:24;100346.22;;;28.36;46.74
20368;BME280;10343;52.402;9.796;2023-07-16T02:53:53;100342.59;;;28.27;47.03
20368;BME280;10343;52.402;9.796;2023-07-16T02:56:21;100353.31;;;28.29;46.94
20368;BME280;10343;52.402;9.796;2023-07-16T02:58:49;100356.31;;;28.44;46.17
20368;BME280;10343;52.402;9.796;2023-07-16T03:01:17;100359.66;;;28.29;46.26
20368;BME280;10343;52.402;9.796;2023-07-16T03:03:45;100362.47;;;27.84;47.59
20368;BME280;10343;52.402;9.796;2023-07-16T03:06:13;100364.34;;;28.01;46.89
20368;BME280;10343;52.402;9.796;2023-07-16T03:08:44;100367.25;;;28.00;47.33
20368;BME280;10343;52.402;9.796;2023-07-16T03:11:14;100376.78;;;28.22;46.22
20368;BME280;10343;52.402;9.796;2023-07-16T03:13:42;100377.38;;;28.07;46.63
20368;BME280;10343;52.402;9.796;2023-07-16T03:16:09;100371.19;;;27.87;46.96
20368;BME280;10343;52.402;9.796;2023-07-16T03:18:37;100373.59;;;28.08;46.49
20368;BME280;10343;52.402;9.796;2023-07-16T03:21:05;100379.84;;;28.01;46.36
20368;BME280;10343;52.402;9.796;2023-07-16T03:23:33;100373.75;;;28.07;46.49
20368;BME280;10343;52.402;9.796;2023-07-16T03:26:01;100373.06;;;27.69;46.99
20368;BME280;10343;52.402;9.796;2023-07-16T03:28:30;100374.75;;;27.70;47.33
20368;BME280;10343;52.402;9.796;2023-07-16T03:31:01;100377.31;;;27.25;48.29
20368;BME280;10343;52.402;9.796;2023-07-16T03:33:31;100381.81;;;27.44;47.91
20368;BME280;10343;52.402;9.796;2023-07-16T03:35:59;100392.63;;;27.54;47.97
20368;BME280;10343;52.402;9.796;2023-07-16T03:38:28;100393.16;;;27.30;48.41
20368;BME280;10343;52.402;9.796;2023-07-16T03:40:55;100393.44;;;27.65;47.18
20368;BME280;10343;52.402;9.796;2023-07-16T03:43:24;100407.25;;;27.53;47.41
20368;BME280;10343;52.402;9.796;2023-07-16T03:45:59;100410.25;;;26.94;49.35
20368;BME280;10343;52.402;9.796;2023-07-16T03:48:28;100407.34;;;27.34;48.10
20368;BME280;10343;52.402;9.796;2023-07-16T03:50:56;100411.28;;;27.49;47.91
20368;BME280;10343;52.402;9.796;2023-07-16T03:53:24;100401.81;;;27.53;47.58
20368;BME280;10343;52.402;9.796;2023-07-16T03:55:51;100407.19;;;27.63;47.33
20368;BME280;10343;52.402;9.796;2023-07-16T03:58:19;100411.78;;;27.62;47.58
20368;BME280;10343;52.402;9.796;2023-07-16T04:00:50;100420.66;;;27.65;47.33
20368;BME280;10343;52.402;9.796;2023-07-16T04:03:22;100419.47;;;27.67;47.30
20368;BME280;10343;52.402;9.796;2023-07-16T04:05:50;100424.97;;;27.29;48.34
20368;BME280;10343;52.402;9.796;2023-07-16T04:08:18;100436.81;;;27.48;47.55
20368;BME280;10343;52.402;9.796;2023-07-16T04:10:46;100433.00;;;27.87;46.90
20368;BME280;10343;52.402;9.796;2023-07-16T04:13:14;100450.88;;;27.34;48.06
20368;BME280;10343;52.402;9.796;2023-07-16T04:15:42;100442.09;;;27.12;48.60
20368;BME280;10343;52.402;9.796;2023-07-16T04:18:09;100450.31;;;26.92;49.33
20368;BME280;10343;52.402;9.796;2023-07-16T04:20:39;100445.38;;;27.16;49.02
20368;BME280;10343;52.402;9.796;2023-07-16T04:23:07;100443.84;;;27.03;49.40
20368;BME280;10343;52.402;9.796;2023-07-16T04:25:35;100451.00;;;27.70;47.29
20368;BME280;10343;52.402;9.796;2023-07-16T04:28:03;100454.75;;;28.15;46.21
20368;BME280;10343;52.402;9.796;2023-07-16T04:30:31;100458.97;;;28.53;44.71
20368;BME280;10343;52.402;9.796;2023-07-16T04:32:58;100466.50;;;29.04;43.67
20368;BME280;10343;52.402;9.796;2023-07-16T04:35:26;100466.78;;;28.92;43.61
20368;BME280;10343;52.402;9.796;2023-07-16T04:37:56;100475.94;;;28.83;43.64
20368;BME280;10343;52.402;9.796;2023-07-16T04:40:27;100470.06;;;28.34;44.98
20368;BME280;10343;52.402;9.796;2023-07-16T04:42:55;100473.72;;;27.60;46.90
20368;BME280;10343;52.402;9.796;2023-07-16T04:45:22;100480.06;;;27.51;47.04
20368;BME280;10343;52.402;9.796;2023-07-16T04:47:50;100488.88;;;26.78;49.49
20368;BME280;10343;52.402;9.796;2023-07-16T04:50:18;100496.44;;;27.41;48.55
20368;BME280;10343;52.402;9.796;2023-07-16T04:52:46;100499.44;;;27.38;48.03
20368;BME280;10343;52.402;9.796;2023-07-16T04:55:15;100499.88;;;27.34;48.08
20368;BME280;10343;52.402;9.796;2023-07-16T04:57:43;100501.31;;;27.38;48.26
20368;BME280;10343;52.402;9.796;2023-07-16T05:00:12;100498.66;;;27.56;47.68
20368;BME280;10343;52.402;9.796;2023-07-16T05:02:40;100503.34;;;27.63;47.63
20368;BME280;10343;52.402;9.796;2023-07-16T05:05:08;100505.34;;;27.61;47.61
20368;BME280;10343;52.402;9.796;2023-07-16T05:07:36;100504.19;;;27.64;47.17
20368;BME280;10343;52.402;9.796;2023-07-16T05:10:04;100506.09;;;27.63;47.15
20368;BME280;10343;52.402;9.796;2023-07-16T05:12:34;100514.00;;;27.00;49.17
20368;BME280;10343;52.402;9.796;2023-07-16T05:15:02;100515.94;;;27.92;46.56
20368;BME280;10343;52.402;9.796;2023-07-16T05:17:29;100517.59;;;27.48;47.90
20368;BME280;10343;52.402;9.796;2023-07-16T05:19:58;100512.53;;;27.62;46.96
20368;BME280;10343;52.402;9.796;2023-07-16T05:22:25;100523.16;;;27.84;46.38
20368;BME280;10343;52.402;9.796;2023-07-16T05:24:53;100522.47;;;28.09;46.31
20368;BME280;10343;52.402;9.796;2023-07-16T05:27:21;100521.78;;;28.25;45.34
20368;BME280;10343;52.402;9.796;2023-07-16T05:29:50;100530.97;;;27.96;45.24
20368;BME280;10343;52.402;9.796;2023-07-16T05:32:18;100530.34;;;28.30;44.99
20368;BME280;10343;52.402;9.796;2023-07-16T05:34:46;100532.84;;;28.42;44.61
20368;BME280;10343;52.402;9.796;2023-07-16T05:37:14;100544.88;;;28.03;45.07
20368;BME280;10343;52.402;9.796;2023-07-16T05:39:42;100546.84;;;28.47;44.37
20368;BME280;10343;52.402;9.796;2023-07-16T05:42:10;100547.50;;;27.95;45.07
20368;BME280;10343;52.402;9.796;2023-07-16T05:44:37;100542.38;;;27.82;44.94
20368;BME280;10343;52.402;9.796;2023-07-16T05:47:07;100542.88;;;27.95;45.04
20368;BME280;10343;52.402;9.796;2023-07-16T05:49:35;100554.50;;;28.25;43.65
20368;BME280;10343;52.402;9.796;2023-07-16T05:52:04;100554.03;;;27.37;45.50
20368;BME280;10343;52.402;9.796;2023-07-16T05:54:33;100542.78;;;27.59;44.63
20368;BME280;10343;52.402;9.796;2023-07-16T05:57:00;100554.47;;;27.70;44.79
20368;BME280;10343;52.402;9.796;2023-07-16T05:59:30;100551.34;;;27.17;46.28
20368;BME280;10343;52.402;9.796;2023-07-16T06:02:00;100562.59;;;27.52;44.72
20368;BME280;10343;52.402;9.796;2023-07-16T06:04:30;100558.00;;;27.52;44.66
20368;BME280;10343;52.402;9.796;2023-07-16T06:06:58;100566.78;;;27.74;44.44
20368;BME280;10343;52.402;9.796;2023-07-16T06:09:26;100565.47;;;27.50;45.40
20368;BME280;10343;52.402;9.796;2023-07-16T06:11:54;100559.41;;;26.99;45.91
20368;BME280;10343;52.402;9.796;2023-07-16T06:14:21;100554.91;;;28.03;43.32
20368;BME280;10343;52.402;9.796;2023-07-16T06:16:49;100558.81;;;28.18;43.52
20368;BME280;10343;52.402;9.796;2023-07-16T06:19:17;100557.41;;;28.14;43.04
20368;BME280;10343;52.402;9.796;2023-07-16T06:21:47;100566.28;;;27.60;44.25
20368;BME280;10343;52.402;9.796;2023-07-16T06:24:14;100559.66;;;28.01;42.78
20368;BME280;10343;52.402;9.796;2023-07-16T06:26:43;100558.53;;;28.93;41.50
20368;BME280;10343;52.402;9.796;2023-07-16T06:29:11;100570.84;;;28.97;40.77
20368;BME280;10343;52.402;9.796;2023-07-16T06:31:39;100568.63;;;29.19;39.49
20368;BME280;10343;52.402;9.796;2023-07-16T06:34:07;100564.31;;;28.90;39.96
20368;BME280;10343;52.402;9.796;2023-07-16T06:36:35;100573.81;;;29.04;39.40
20368;BME280;10343;52.402;9.796;2023-07-16T06:39:04;100574.28;;;29.00;39.67
20368;BME280;10343;52.402;9.796;2023-07-16T06:41:32;100569.25;;;28.69;39.97
20368;BME280;10343;52.402;9.796;2023-07-16T06:44:00;100576.75;;;28.39;40.49
20368;BME280;10343;52.402;9.796;2023-07-16T06:46:28;100584.81;;;28.94;39.35
20368;BME280;10343;52.402;9.796;2023-07-16T06:48:56;100579.91;;;28.80;39.24
20368;BME280;10343;52.402;9.796;2023-07-16T06:51:23;100587.41;;;29.22;38.44
20368;BME280;10343;52.402;9.796;2023-07-16T06:53:51;100585.84;;;29.20;38.61
20368;BME280;10343;52.402;9.796;2023-07-16T06:56:21;100589.78;;;29.43;37.69
20368;BME280;10343;52.402;9.796;2023-07-16T06:58:49;100597.19;;;30.20;36.66
20368;BME280;10343;52.402;9.796;2023-07-16T07:01:16;100578.91;;;30.37;36.11
20368;BME280;10343;52.402;9.796;2023-07-16T07:03:44;100586.13;;;29.08;37.97
20368;BME280;10343;52.402;9.796;2023-07-16T07:06:12;100599.38;;;30.16;36.13
20368;BME280;10343;52.402;9.796;2023-07-16T07:08:41;100604.66;;;30.10;36.14
20368;BME280;10343;52.402;9.796;2023-07-16T07:11:09;100610.84;;;29.25;37.71
20368;BME280;10343;52.402;9.796;2023-07-16T07:13:38;100608.69;;;29.37;37.28
20368;BME280;10343;52.402;9.796;2023-07-16T07:16:06;100611.34;;;29.81;36.57
20368;BME280;10343;52.402;9.796;2023-07-16T07:18:34;100608.59;;;29.46;35.48
20368;BME280;10343;52.402;9.796;2023-07-16T07:21:02;100613.19;;;28.66;35.88
20368;BME280;10343;52.402;9.796;2023-07-16T07:23:30;100617.94;;;29.00;34.85
20368;BME280;10343;52.402;9.796;2023-07-16T07:25:58;100627.69;;;28.84;35.25
20368;BME280;10343;52.402;9.796;2023-07-16T07:28:27;100620.94;;;28.60;34.55
20368;BME280;10343;52.402;9.796;2023-07-16T07:30:56;100618.41;;;27.66;34.85
20368;BME280;10343;52.402;9.796;2023-07-16T07:33:24;100619.09;;;28.15;33.70
20368;BME280;10343;52.402;9.796;2023-07-16T07:35:53;100614.75;;;29.04;32.78
20368;BME280;10343;52.402;9.796;2023-07-16T07:38:21;100619.63;;;29.01;32.29
20368;BME280;10343;52.402;9.796;2023-07-16T07:40:49;100631.25;;;29.21;31.40
20368;BME280;10343;52.402;9.796;2023-07-16T07:43:17;100627.94;;;28.45;31.78
20368;BME280;10343;52.402;9.796;2023-07-16T07:45:45;100620.50;;;28.65;32.18
20368;BME280;10343;52.402;9.796;2023-07-16T07:48:14;100617.88;;;28.00;32.15
20368;BME280;10343;52.402;9.796;2023-07-16T07:50:42;100634.59;;;28.60;30.78
20368;BME280;10343;52.402;9.796;2023-07-16T07:53:10;100634.81;;;29.21;29.96
20368;BME280;10343;52.402;9.796;2023-07-16T07:55:38;100644.94;;;28.11;30.65
20368;BME280;10343;52.402;9.796;2023-07-16T07:58:07;100645.22;;;28.36;30.58
20368;BME280;10343;52.402;9.796;2023-07-16T08:00:34;100650.94;;;28.60;30.30
20368;BME280;10343;52.402;9.796;2023-07-16T08:03:03;100654.59;;;28.79;30.19
20368;BME280;10343;52.402;9.796;2023-07-16T08:05:32;100653.19;;;28.47;30.56
20368;BME280;10343;52.402;9.796;2023-07-16T08:08:01;100662.75;;;29.33;29.72
20368;BME280;10343;52.402;9.796;2023-07-16T08:10:29;100666.44;;;29.06;30.27
20368;BME280;10343;52.402;9.796;2023-07-16T08:12:57;100654.41;;;28.62;30.57
20368;BME280;10343;52.402;9.796;2023-07-16T08:15:25;100670.66;;;28.54;31.02
20368;BME280;10343;52.402;9.796;2023-07-16T08:17:53;100667.91;;;29.00;30.13
20368;BME280;10343;52.402;9.796;2023-07-16T08:20:22;100676.44;;;29.59;29.35
20368;BME280;10343;52.402;9.796;2023-07-16T08:22:52;100670.28;;;30.10;29.24
20368;BME280;10343;52.402;9.796;2023-07-16T08:25:20;100674.09;;;30.25;28.32
20368;BME280;10343;52.402;9.796;2023-07-16T08:27:48;100686.75;;;30.35;28.51
20368;BME280;10343;52.402;9.796;2023-07-16T08:30:16;100682.13;;;30.70;28.39
20368;BME280;10343;52.402;9.796;2023-07-16T08:32:44;100678.81;;;30.15;28.78
20368;BME280;10343;52.402;9.796;2023-07-16T08:35:12;100680.88;;;30.56;28.50
20368;BME280;10343;52.402;9.796;2023-07-16T08:37:43;100674.38;;;30.48;28.69
20368;BME280;10343;52.402;9.796;2023-07-16T08:40:13;100682.31;;;30.85;27.68
20368;BME280;10343;52.402;9.796;2023-07-16T08:42:44;100683.84;;;30.71;28.08
20368;BME280;10343;52.402;9.796;2023-07-16T08:45:14;100676.69;;;30.35;28.72
20368;BME280;10343;52.402;9.796;2023-07-16T08:47:42;100684.84;;;30.61;28.69
20368;BME280;10343;52.402;9.796;2023-07-16T08:50:11;100677.38;;;30.37;27.92
20368;BME280;10343;52.402;9.796;2023-07-16T08:52:40;100681.19;;;31.20;27.70
20368;BME280;10343;52.402;9.796;2023-07-16T08:55:08;100671.88;;;30.80;27.67
20368;BME280;10343;52.402;9.796;2023-07-16T08:57:39;100670.69;;;29.71;28.71
20368;BME280;10343;52.402;9.796;2023-07-16T09:00:08;100678.72;;;29.98;28.41
20368;BME280;10343;52.402;9.796;2023-07-16T09:02:37;100683.13;;;30.60;27.23
20368;BME280;10343;52.402;9.796;2023-07-16T09:05:08;100676.72;;;30.43;27.31
20368;BME280;10343;52.402;9.796;2023-07-16T09:07:53;100671.66;;;30.48;27.57
20368;BME280;10343;52.402;9.796;2023-07-16T09:10:23;100680.44;;;30.85;27.46
20368;BME280;10343;52.402;9.796;2023-07-16T09:12:53;100674.00;;;31.19;26.68
20368;BME280;10343;52.402;9.796;2023-07-16T09:15:21;100672.09;;;31.11;26.99
20368;BME280;10343;52.402;9.796;2023-07-16T09:17:49;100677.00;;;30.75;27.06
20368;BME280;10343;52.402;9.796;2023-07-16T09:20:17;100674.34;;;31.41;26.60
20368;BME280;10343;52.402;9.796;2023-07-16T09:22:47;100678.19;;;30.21;27.72
20368;BME280;10343;52.402;9.796;2023-07-16T09:25:15;100669.53;;;29.47;28.03
20368;BME280;10343;52.402;9.796;2023-07-16T09:27:43;100675.06;;;30.16;27.38
20368;BME280;10343;52.402;9.796;2023-07-16T09:30:16;100691.31;;;30.60;27.63
20368;BME280;10343;52.402;9.796;2023-07-16T09:32:44;100682.53;;;31.57;26.12
20368;BME280;10343;52.402;9.796;2023-07-16T09:35:14;100680.84;;;31.48;26.57
20368;BME280;10343;52.402;9.796;2023-07-16T09:37:43;100684.59;;;31.06;26.75
20368;BME280;10343;52.402;9.796;2023-07-16T09:40:11;100688.94;;;30.65;27.16
20368;BME280;10343;52.402;9.796;2023-07-16T09:42:41;100692.59;;;30.99;26.08
20368;BME280;10343;52.402;9.796;2023-07-16T09:45:16;100680.31;;;31.03;26.26
20368;BME280;10343;52.402;9.796;2023-07-16T09:47:46;100676.91;;;32.23;25.02
20368;BME280;10343;52.402;9.796;2023-07-16T09:50:14;100684.94;;;31.44;25.85
20368;BME280;10343;52.402;9.796;2023-07-16T09:52:43;100696.28;;;30.57;26.85
20368;BME280;10343;52.402;9.796;2023-07-16T09:55:11;100690.44;;;31.60;25.99
20368;BME280;10343;52.402;9.796;2023-07-16T09:57:42;100682.50;;;31.82;25.24
20368;BME280;10343;52.402;9.796;2023-07-16T10:00:12;100691.63;;;32.30;24.92
20368;BME280;10343;52.402;9.796;2023-07-16T10:02:42;100703.03;;;32.42;24.58
20368;BME280;10343;52.402;9.796;2023-07-16T10:05:14;100708.56;;;31.20;25.93
20368;BME280;10343;52.402;9.796;2023-07-16T10:07:43;100699.00;;;31.41;25.60
20368;BME280;10343;52.402;9.796;2023-07-16T10:10:16;100699.91;;;30.31;27.36
20368;BME280;10343;52.402;9.796;2023-07-16T10:12:55;100685.81;;;29.57;28.28
20368;BME280;10343;52.402;9.796;2023-07-16T10:15:26;100689.22;;;31.46;26.30
20368;BME280;10343;52.402;9.796;2023-07-16T10:17:55;100695.19;;;31.33;26.74
20368;BME280;10343;52.402;9.796;2023-07-16T10:20:33;100687.69;;;31.69;26.24
20368;BME280;10343;52.402;9.796;2023-07-16T10:23:10;100680.81;;;31.56;26.46
20368;BME280;10343;52.402;9.796;2023-07-16T10:25:40;100691.06;;;31.54;25.99
20368;BME280;10343;52.402;9.796;2023-07-16T10:28:08;100696.19;;;30.83;26.42
20368;BME280;10343;52.402;9.796;2023-07-16T10:30:36;100701.84;;;30.98;26.39
20368;BME280;10343;52.402;9.796;2023-07-16T10:33:11;100701.78;;;30.65;26.83
20368;BME280;10343;52.402;9.796;2023-07-16T10:35:42;100707.38;;;30.55;26.85
20368;BME280;10343;52.402;9.796;2023-07-16T10:38:10;100702.81;;;30.29;27.61
20368;BME280;10343;52.402;9.796;2023-07-16T10:40:44;100704.34;;;30.66;26.50
20368;BME280;10343;52.402;9.796;2023-07-16T10:43:12;100703.13;;;31.61;25.94
20368;BME280;10343;52.402;9.796;2023-07-16T10:45:40;100715.72;;;31.87;25.58
20368;BME280;10343;52.402;9.796;2023-07-16T10:48:08;100704.25;;;31.01;25.66
20368;BME280;10343;52.402;9.796;2023-07-16T10:50:36;100711.63;;;31.42;25.08
20368;BME280;10343;52.402;9.796;2023-07-16T10:53:06;100716.44;;;31.23;25.82
20368;BME280;10343;52.402;9.796;2023-07-16T10:55:34;100709.25;;;31.22;25.41
20368;BME280;10343;52.402;9.796;2023-07-16T10:58:05;100717.69;;;30.70;26.30
20368;BME280;10343;52.402;9.796;2023-07-16T11:00:39;100709.00;;;32.06;25.31
20368;BME280;10343;52.402;9.796;2023-07-16T11:03:10;100705.38;;;30.74;26.53
20368;BME280;10343;52.402;9.796;2023-07-16T11:05:39;100716.44;;;31.48;26.05
20368;BME280;10343;52.402;9.796;2023-07-16T11:08:08;100708.22;;;31.48;25.50
20368;BME280;10343;52.402;9.796;2023-07-16T11:10:36;100708.63;;;30.61;26.57
20368;BME280;10343;52.402;9.796;2023-07-16T11:13:04;100714.94;;;30.70;26.47
20368;BME280;10343;52.402;9.796;2023-07-16T11:15:32;100714.19;;;31.19;25.78
20368;BME280;10343;52.402;9.796;2023-07-16T11:18:01;100725.22;;;30.76;25.74
20368;BME280;10343;52.402;9.796;2023-07-16T11:20:30;100713.84;;;31.05;25.33
20368;BME280;10343;52.402;9.796;2023-07-16T11:22:59;100706.78;;;30.94;25.05
20368;BME280;10343;52.402;9.796;2023-07-16T11:25:29;100721.50;;;30.93;25.25
20368;BME280;10343;52.402;9.796;2023-07-16T11:27:57;100728.41;;;31.06;24.96
20368;BME280;10343;52.402;9.796;2023-07-16T11:30:25;100712.31;;;31.11;24.97
20368;BME280;10343;52.402;9.796;2023-07-16T11:32:54;100712.69;;;31.57;24.59
20368;BME280;10343;52.402;9.796;2023-07-16T11:35:22;100717.47;;;31.47;24.45
20368;BME280;10343;52.402;9.796;2023-07-16T11:37:50;100709.06;;;31.57;24.24
20368;BME280;10343;52.402;9.796;2023-07-16T11:40:19;100706.38;;;32.29;23.63
20368;BME280;10343;52.402;9.796;2023-07-16T11:42:50;100709.44;;;31.70;24.29
20368;BME280;10343;52.402;9.796;2023-07-16T11:45:20;100714.38;;;31.75;23.95
20368;BME280;10343;52.402;9.796;2023-07-16T11:47:49;100707.03;;;31.42;24.04
20368;BME280;10343;52.402;9.796;2023-07-16T11:50:17;100716.78;;;31.37;24.60
20368;BME280;10343;52.402;9.796;2023-07-16T11:52:52;100704.13;;;31.44;24.17
20368;BME280;10343;52.402;9.796;2023-07-16T11:55:20;100721.22;;;31.46;24.33
20368;BME280;10343;52.402;9.796;2023-07-16T11:57:49;100728.41;;;31.30;24.47
20368;BME280;10343;52.402;9.796;2023-07-16T12:00:17;100719.56;;;31.61;24.43
20368;BME280;10343;52.402;9.796;2023-07-16T12:02:45;100711.78;;;31.90;24.28
20368;BME280;10343;52.402;9.796;2023-07-16T12:05:18;100708.84;;;31.91;24.02
20368;BME280;10343;52.402;9.796;2023-07-16T12:07:56;100712.56;;;32.23;23.84
20368;BME280;10343;52.402;9.796;2023-07-16T12:10:24;100715.88;;;32.50;23.21
20368;BME280;10343;52.402;9.796;2023-07-16T12:12:53;100721.16;;;32.04;23.96
20368;BME280;10343;52.402;9.796;2023-07-16T12:15:21;100715.47;;;32.61;23.42
20368;BME280;10343;52.402;9.796;2023-07-16T12:17:49;100723.56;;;32.15;23.97
20368;BME280;10343;52.402;9.796;2023-07-16T12:20:17;100718.75;;;32.17;23.67
20368;BME280;10343;52.402;9.796;2023-07-16T12:22:45;100719.31;;;32.44;23.80
20368;BME280;10343;52.402;9.796;2023-07-16T12:25:13;100722.44;;;32.41;23.53
20368;BME280;10343;52.402;9.796;2023-07-16T12:27:42;100723.00;;;32.76;23.03
20368;BME280;10343;52.402;9.796;2023-07-16T12:30:11;100733.50;;;32.16;23.97
20368;BME280;10343;52.402;9.796;2023-07-16T12:32:40;100715.31;;;32.15;23.65
20368;BME280;10343;52.402;9.796;2023-07-16T12:35:08;100736.88;;;32.74;24.15
20368;BME280;10343;52.402;9.796;2023-07-16T12:37:36;100728.06;;;31.83;24.66
20368;BME280;10343;52.402;9.796;2023-07-16T12:40:07;100723.13;;;33.06;22.81
20368;BME280;10343;52.402;9.796;2023-07-16T12:42:35;100740.69;;;32.17;24.31
20368;BME280;10343;52.402;9.796;2023-07-16T12:45:04;100748.44;;;31.80;24.87
20368;BME280;10343;52.402;9.796;2023-07-16T12:47:33;100742.28;;;31.78;24.03
20368;BME280;10343;52.402;9.796;2023-07-16T12:50:02;100734.16;;;32.26;24.30
20368;BME280;10343;52.402;9.796;2023-07-16T12:52:30;100739.78;;;32.73;23.80
20368;BME280;10343;52.402;9.796;2023-07-16T12:54:58;100742.75;;;32.94;23.64
20368;BME280;10343;52.402;9.796;2023-07-16T12:57:32;100733.97;;;32.76;23.46
20368;BME280;10343;52.402;9.796;2023-07-16T13:00:00;100741.56;;;32.97;23.80